sensor_id;sensor_type;location;lat;lon;timestamp;pressure;altitude;pressure_sealevel;temperature;humidity
70968;BME280;58629;48.808;8.820;2023-04-22T00:01:16;96518.53;;;8.70;100.00
70968;BME280;58629;48.808;8.820;2023-04-22T00:03:42;96505.00;;;8.68;100.00
70968;BME280;58629;48.808;8.820;2023-04-22T00:06:08;96503.09;;;8.68;100.00
70968;BME280;58629;48.808;8.820;2023-04-22T00:08:34;96506.84;;;8.71;100.00
70968;BME280;58629;48.808;8.820;2023-04-22T00:10:59;96497.00;;;8.71;100.00
70968;BME280;58629;48.808;8.820;2023-04-22T00:13:25;96499.31;;;8.69;100.00
70968;BME280;58629;48.808;8.820;2023-04-22T00:15:50;96510.34;;;8.64;100.00
70968;BME280;58629;48.808;8.820;2023-04-22T00:18:15;96498.25;;;8.67;100.00
70968;BME280;58629;48.808;8.820;2023-04-22T00:20:41;96498.66;;;8.65;100.00
70968;BME280;58629;48.808;8.820;2023-04-22T00:23:08;96506.63;;;8.62;100.00
70968;BME280;58629;48.808;8.820;2023-04-22T00:25:33;96502.44;;;8.64;100.00
70968;BME280;58629;48.808;8.820;2023-04-22T00:27:58;96503.59;;;8.63;100.00
70968;BME280;58629;48.808;8.820;2023-04-22T00:30:24;96495.28;;;8.65;100.00
70968;BME280;58629;48.808;8.820;2023-04-22T00:32:49;96495.28;;;8.65;100.00
70968;BME280;58629;48.808;8.820;2023-04-22T00:35:15;96491.13;;;8.64;100.00
70968;BME280;58629;48.808;8.820;2023-04-22T00:37:40;96494.34;;;8.55;100.00
70968;BME280;58629;48.808;8.820;2023-04-22T00:40:07;96492.75;;;8.58;100.00
70968;BME280;58629;48.808;8.820;2023-04-22T00:42:33;96488.63;;;8.57;100.00
70968;BME280;58629;48.808;8.820;2023-04-22T00:44:59;96493.16;;;8.56;100.00
70968;BME280;58629;48.808;8.820;2023-04-22T00:47:24;96501.28;;;8.46;100.00
70968;BME280;58629;48.808;8.820;2023-04-22T00:49:52;96499.41;;;8.46;100.00
70968;BME280;58629;48.808;8.820;2023-04-22T00:52:17;96499.06;;;8.44;100.00
70968;BME280;58629;48.808;8.820;2023-04-22T00:54:43;96490.72;;;8.46;100.00
70968;BME280;58629;48.808;8.820;2023-04-22T00:57:08;96496.00;;;8.46;100.00
70968;BME280;58629;48.808;8.820;2023-04-22T00:59:34;96502.44;;;8.45;100.00
70968;BME280;58629;48.808;8.820;2023-04-22T01:02:00;96500.22;;;8.43;100.00
70968;BME280;58629;48.808;8.820;2023-04-22T01:04:25;96484.31;;;8.47;100.00
70968;BME280;58629;48.808;8.820;2023-04-22T01:06:51;96488.44;;;8.48;100.00
70968;BME280;58629;48.808;8.820;2023-04-22T01:09:18;96489.19;;;8.48;100.00
70968;BME280;58629;48.808;8.820;2023-04-22T01:11:45;96488.38;;;8.51;100.00
70968;BME280;58629;48.808;8.820;2023-04-22T01:14:11;96488.72;;;8.53;100.00
70968;BME280;58629;48.808;8.820;2023-04-22T01:16:36;96485.34;;;8.53;100.00
70968;BME280;58629;48.808;8.820;2023-04-22T01:19:04;96484.50;;;8.56;100.00
70968;BME280;58629;48.808;8.820;2023-04-22T01:21:30;96488.03;;;8.49;100.00
70968;BME280;58629;48.808;8.820;2023-04-22T01:23:58;96495.22;;;8.49;100.00
70968;BME280;58629;48.808;8.820;2023-04-22T01:26:23;96482.47;;;8.44;100.00
70968;BME280;58629;48.808;8.820;2023-04-22T01:28:49;96496.50;;;8.41;100.00
70968;BME280;58629;48.808;8.820;2023-04-22T01:31:14;96495.00;;;8.40;100.00
70968;BME280;58629;48.808;8.820;2023-04-22T01:33:40;96496.50;;;8.41;100.00
70968;BME280;58629;48.808;8.820;2023-04-22T01:36:05;96494.28;;;8.39;100.00
70968;BME280;58629;48.808;8.820;2023-04-22T01:38:31;96489.06;;;8.36;100.00
70968;BME280;58629;48.808;8.820;2023-04-22T01:40:58;96503.72;;;8.37;100.00
70968;BME280;58629;48.808;8.820;2023-04-22T01:43:24;96504.16;;;8.35;100.00
70968;BME280;58629;48.808;8.820;2023-04-22T01:45:50;96505.63;;;8.36;100.00
70968;BME280;58629;48.808;8.820;2023-04-22T01:48:15;96498.53;;;8.33;100.00
70968;BME280;58629;48.808;8.820;2023-04-22T01:50:40;96498.19;;;8.31;100.00
70968;BME280;58629;48.808;8.820;2023-04-22T01:53:06;96501.97;;;8.30;100.00
70968;BME280;58629;48.808;8.820;2023-04-22T01:55:32;96499.00;;;8.28;100.00
70968;BME280;58629;48.808;8.820;2023-04-22T01:58:00;96497.84;;;8.29;100.00
70968;BME280;58629;48.808;8.820;2023-04-22T02:00:25;96508.41;;;8.29;100.00
70968;BME280;58629;48.808;8.820;2023-04-22T02:02:50;96500.06;;;8.31;100.00
70968;BME280;58629;48.808;8.820;2023-04-22T02:05:16;96501.63;;;8.28;100.00
70968;BME280;58629;48.808;8.820;2023-04-22T02:07:42;96494.88;;;8.27;100.00
70968;BME280;58629;48.808;8.820;2023-04-22T02:10:07;96502.38;;;8.29;100.00
70968;BME280;58629;48.808;8.820;2023-04-22T02:12:33;96498.53;;;8.33;100.00
70968;BME280;58629;48.808;8.820;2023-04-22T02:14:59;96498.19;;;8.31;100.00
70968;BME280;58629;48.808;8.820;2023-04-22T02:17:24;96492.25;;;8.27;100.00
70968;BME280;58629;48.808;8.820;2023-04-22T02:19:50;96497.94;;;8.26;100.00
70968;BME280;58629;48.808;8.820;2023-04-22T02:22:16;96497.22;;;8.22;100.00
70968;BME280;58629;48.808;8.820;2023-04-22T02:24:41;96499.19;;;8.18;100.00
70968;BME280;58629;48.808;8.820;2023-04-22T02:27:07;96502.59;;;8.15;100.00
70968;BME280;58629;48.808;8.820;2023-04-22T02:29:33;96502.59;;;8.15;100.00
70968;BME280;58629;48.808;8.820;2023-04-22T02:31:58;96510.59;;;8.11;100.00
70968;BME280;58629;48.808;8.820;2023-04-22T02:34:24;96508.41;;;8.06;100.00
70968;BME280;58629;48.808;8.820;2023-04-22T02:36:50;96501.72;;;8.02;100.00
70968;BME280;58629;48.808;8.820;2023-04-22T02:39:15;96497.94;;;8.03;100.00
70968;BME280;58629;48.808;8.820;2023-04-22T02:41:41;96510.03;;;8.00;100.00
70968;BME280;58629;48.808;8.820;2023-04-22T02:44:06;96501.38;;;8.00;100.00
70968;BME280;58629;48.808;8.820;2023-04-22T02:46:31;96490.50;;;7.98;100.00
70968;BME280;58629;48.808;8.820;2023-04-22T02:48:56;96492.78;;;7.96;100.00
70968;BME280;58629;48.808;8.820;2023-04-22T02:51:22;96498.13;;;7.92;100.00
70968;BME280;58629;48.808;8.820;2023-04-22T02:53:47;96497.78;;;7.90;100.00
70968;BME280;58629;48.808;8.820;2023-04-22T02:56:12;96492.53;;;7.90;100.00
70968;BME280;58629;48.808;8.820;2023-04-22T02:58:38;96495.53;;;7.88;100.00
70968;BME280;58629;48.808;8.820;2023-04-22T03:01:03;96489.59;;;7.84;100.00
70968;BME280;58629;48.808;8.820;2023-04-22T03:03:28;96483.53;;;7.87;100.00
70968;BME280;58629;48.808;8.820;2023-04-22T03:05:53;96494.84;;;7.84;100.00
70968;BME280;58629;48.808;8.820;2023-04-22T03:08:19;96496.34;;;7.85;100.00
70968;BME280;58629;48.808;8.820;2023-04-22T03:10:45;96502.03;;;7.84;100.00
70968;BME280;58629;48.808;8.820;2023-04-22T03:13:11;96488.09;;;7.83;100.00
70968;BME280;58629;48.808;8.820;2023-04-22T03:15:41;96492.63;;;7.83;100.00
70968;BME280;58629;48.808;8.820;2023-04-22T03:18:06;96493.38;;;7.83;100.00
70968;BME280;58629;48.808;8.820;2023-04-22T03:20:32;96502.03;;;7.84;100.00
70968;BME280;58629;48.808;8.820;2023-04-22T03:22:58;96503.56;;;7.81;100.00
70968;BME280;58629;48.808;8.820;2023-04-22T03:25:23;96506.97;;;7.82;100.00
70968;BME280;58629;48.808;8.820;2023-04-22T03:27:48;96504.00;;;7.80;100.00
70968;BME280;58629;48.808;8.820;2023-04-22T03:30:13;96499.06;;;7.82;100.00
70968;BME280;58629;48.808;8.820;2023-04-22T03:32:39;96507.00;;;7.78;100.00
70968;BME280;58629;48.808;8.820;2023-04-22T03:35:04;96504.72;;;7.80;100.00
70968;BME280;58629;48.808;8.820;2023-04-22T03:37:30;96504.78;;;7.77;100.00
70968;BME280;58629;48.808;8.820;2023-04-22T03:39:55;96500.66;;;7.76;100.00
70968;BME280;58629;48.808;8.820;2023-04-22T03:42:21;96496.94;;;7.73;100.00
70968;BME280;58629;48.808;8.820;2023-04-22T03:44:46;96498.47;;;7.71;100.00
70968;BME280;58629;48.808;8.820;2023-04-22T03:47:11;96509.50;;;7.66;100.00
70968;BME280;58629;48.808;8.820;2023-04-22T03:49:37;96505.81;;;7.60;100.00
70968;BME280;58629;48.808;8.820;2023-04-22T03:52:02;96496.41;;;7.59;100.00
70968;BME280;58629;48.808;8.820;2023-04-22T03:54:28;96501.81;;;7.52;100.00
70968;BME280;58629;48.808;8.820;2023-04-22T03:56:53;96495.78;;;7.51;100.00
70968;BME280;58629;48.808;8.820;2023-04-22T03:59:18;96499.25;;;7.48;100.00
70968;BME280;58629;48.808;8.820;2023-04-22T04:01:46;96498.50;;;7.48;100.00
70968;BME280;58629;48.808;8.820;2023-04-22T04:04:12;96497.72;;;7.47;100.00
70968;BME280;58629;48.808;8.820;2023-04-22T04:06:37;96498.13;;;7.46;100.00
70968;BME280;58629;48.808;8.820;2023-04-22T04:09:03;96497.09;;;7.40;100.00
70968;BME280;58629;48.808;8.820;2023-04-22T04:11:30;96490.75;;;7.37;100.00
70968;BME280;58629;48.808;8.820;2023-04-22T04:13:55;96492.25;;;7.38;100.00
70968;BME280;58629;48.808;8.820;2023-04-22T04:16:20;96490.41;;;7.35;100.00
70968;BME280;58629;48.808;8.820;2023-04-22T04:18:49;96491.16;;;7.36;100.00
70968;BME280;58629;48.808;8.820;2023-04-22T04:21:14;96493.44;;;7.34;100.00
70968;BME280;58629;48.808;8.820;2023-04-22T04:23:40;96491.63;;;7.31;100.00
70968;BME280;58629;48.808;8.820;2023-04-22T04:26:05;96495.72;;;7.32;100.00
70968;BME280;58629;48.808;8.820;2023-04-22T04:28:30;96496.47;;;7.32;100.00
70968;BME280;58629;48.808;8.820;2023-04-22T04:30:57;96495.72;;;7.32;100.00
70968;BME280;58629;48.808;8.820;2023-04-22T04:33:23;96494.25;;;7.31;100.00
70968;BME280;58629;48.808;8.820;2023-04-22T04:35:48;96492.00;;;7.29;100.00
70968;BME280;58629;48.808;8.820;2023-04-22T04:38:13;96495.72;;;7.32;100.00
70968;BME280;58629;48.808;8.820;2023-04-22T04:40:39;96492.41;;;7.28;100.00
70968;BME280;58629;48.808;8.820;2023-04-22T04:43:04;96492.34;;;7.31;100.00
70968;BME280;58629;48.808;8.820;2023-04-22T04:45:33;96481.81;;;7.31;100.00
70968;BME280;58629;48.808;8.820;2023-04-22T04:48:01;96484.44;;;7.31;100.00
70968;BME280;58629;48.808;8.820;2023-04-22T04:50:27;96495.31;;;7.33;100.00
70968;BME280;58629;48.808;8.820;2023-04-22T04:52:52;96489.66;;;7.35;100.00
70968;BME280;58629;48.808;8.820;2023-04-22T04:55:18;96480.25;;;7.34;100.00
70968;BME280;58629;48.808;8.820;2023-04-22T04:57:44;96489.66;;;7.35;100.00
70968;BME280;58629;48.808;8.820;2023-04-22T05:00:09;96481.78;;;7.35;100.00
70968;BME280;58629;48.808;8.820;2023-04-22T05:02:35;96485.88;;;7.36;100.00
70968;BME280;58629;48.808;8.820;2023-04-22T05:05:01;96484.00;;;7.36;100.00
70968;BME280;58629;48.808;8.820;2023-04-22T05:07:26;96487.03;;;7.35;100.00
70968;BME280;58629;48.808;8.820;2023-04-22T05:09:52;96484.41;;;7.35;100.00
70968;BME280;58629;48.808;8.820;2023-04-22T05:12:17;96485.59;;;7.30;100.00
70968;BME280;58629;48.808;8.820;2023-04-22T05:14:43;96497.59;;;7.31;100.00
70968;BME280;58629;48.808;8.820;2023-04-22T05:17:09;96500.25;;;7.31;100.00
70968;BME280;58629;48.808;8.820;2023-04-22T05:19:34;96503.22;;;7.33;100.00
70968;BME280;58629;48.808;8.820;2023-04-22T05:21:59;96503.22;;;7.33;100.00
70968;BME280;58629;48.808;8.820;2023-04-22T05:24:25;96507.69;;;7.36;100.00
70968;BME280;58629;48.808;8.820;2023-04-22T05:26:50;96505.41;;;7.38;100.00
70968;BME280;58629;48.808;8.820;2023-04-22T05:29:15;96511.38;;;7.42;100.00
70968;BME280;58629;48.808;8.820;2023-04-22T05:31:41;96506.78;;;7.46;100.00
70968;BME280;58629;48.808;8.820;2023-04-22T05:34:06;96504.88;;;7.47;100.00
70968;BME280;58629;48.808;8.820;2023-04-22T05:36:31;96504.78;;;7.54;100.00
70968;BME280;58629;48.808;8.820;2023-04-22T05:38:57;96509.59;;;7.59;100.00
70968;BME280;58629;48.808;8.820;2023-04-22T05:41:22;96514.47;;;7.60;100.00
70968;BME280;58629;48.808;8.820;2023-04-22T05:43:47;96508.34;;;7.67;100.00
70968;BME280;58629;48.808;8.820;2023-04-22T05:46:13;96507.47;;;7.73;100.00
70968;BME280;58629;48.808;8.820;2023-04-22T05:48:38;96504.00;;;7.80;100.00
70968;BME280;58629;48.808;8.820;2023-04-22T05:51:04;96510.28;;;7.86;100.00
70968;BME280;58629;48.808;8.820;2023-04-22T05:53:29;96509.47;;;7.89;100.00
70968;BME280;58629;48.808;8.820;2023-04-22T05:55:54;96508.94;;;7.98;100.00
70968;BME280;58629;48.808;8.820;2023-04-22T05:58:20;96505.78;;;8.06;100.00
70968;BME280;58629;48.808;8.820;2023-04-22T06:00:45;96513.22;;;8.11;100.00
70968;BME280;58629;48.808;8.820;2023-04-22T06:03:10;96521.75;;;8.19;100.00
70968;BME280;58629;48.808;8.820;2023-04-22T06:05:36;96514.88;;;8.25;100.00
70968;BME280;58629;48.808;8.820;2023-04-22T06:08:01;96516.59;;;8.35;100.00
70968;BME280;58629;48.808;8.820;2023-04-22T06:10:26;96516.78;;;8.44;100.00
70968;BME280;58629;48.808;8.820;2023-04-22T06:12:51;96523.06;;;8.50;100.00
70968;BME280;58629;48.808;8.820;2023-04-22T06:15:17;96524.41;;;8.58;100.00
70968;BME280;58629;48.808;8.820;2023-04-22T06:17:42;96518.28;;;8.64;100.00
70968;BME280;58629;48.808;8.820;2023-04-22T06:20:09;96521.16;;;8.70;100.00
70968;BME280;58629;48.808;8.820;2023-04-22T06:22:34;96522.59;;;8.74;100.00
70968;BME280;58629;48.808;8.820;2023-04-22T06:25:00;96519.13;;;8.77;100.00
70968;BME280;58629;48.808;8.820;2023-04-22T06:27:25;96523.19;;;8.82;100.00
70968;BME280;58629;48.808;8.820;2023-04-22T06:29:50;96525.69;;;8.89;100.00
70968;BME280;58629;48.808;8.820;2023-04-22T06:32:16;96521.81;;;8.94;100.00
70968;BME280;58629;48.808;8.820;2023-04-22T06:34:41;96523.16;;;9.02;100.00
70968;BME280;58629;48.808;8.820;2023-04-22T06:37:06;96529.34;;;9.11;100.00
70968;BME280;58629;48.808;8.820;2023-04-22T06:39:32;96521.53;;;9.24;100.00
70968;BME280;58629;48.808;8.820;2023-04-22T06:41:57;96526.59;;;9.34;100.00
70968;BME280;58629;48.808;8.820;2023-04-22T06:44:23;96521.81;;;9.45;100.00
70968;BME280;58629;48.808;8.820;2023-04-22T06:46:49;96521.47;;;9.76;100.00
70968;BME280;58629;48.808;8.820;2023-04-22T06:49:14;96521.28;;;9.83;100.00
70968;BME280;58629;48.808;8.820;2023-04-22T06:51:40;96515.75;;;9.93;100.00
70968;BME280;58629;48.808;8.820;2023-04-22T06:54:05;96509.88;;;10.02;100.00
70968;BME280;58629;48.808;8.820;2023-04-22T06:56:30;96517.81;;;10.02;100.00
70968;BME280;58629;48.808;8.820;2023-04-22T06:58:56;96514.31;;;10.05;100.00
70968;BME280;58629;48.808;8.820;2023-04-22T07:01:21;96513.06;;;10.09;100.00
70968;BME280;58629;48.808;8.820;2023-04-22T07:03:46;96507.88;;;10.22;100.00
70968;BME280;58629;48.808;8.820;2023-04-22T07:06:12;96510.22;;;10.32;100.00
70968;BME280;58629;48.808;8.820;2023-04-22T07:08:37;96500.91;;;10.40;99.42
70968;BME280;58629;48.808;8.820;2023-04-22T07:11:02;96501.94;;;10.59;100.00
70968;BME280;58629;48.808;8.820;2023-04-22T07:13:28;96499.22;;;10.75;98.82
70968;BME280;58629;48.808;8.820;2023-04-22T07:15:58;96492.66;;;10.92;98.58
70968;BME280;58629;48.808;8.820;2023-04-22T07:18:23;96499.00;;;11.07;98.85
70968;BME280;58629;48.808;8.820;2023-04-22T07:20:48;96502.09;;;11.18;100.00
70968;BME280;58629;48.808;8.820;2023-04-22T07:23:14;96499.97;;;11.26;100.00
70968;BME280;58629;48.808;8.820;2023-04-22T07:25:39;96502.06;;;11.31;100.00
70968;BME280;58629;48.808;8.820;2023-04-22T07:28:05;96511.09;;;11.33;100.00
70968;BME280;58629;48.808;8.820;2023-04-22T07:30:30;96513.09;;;11.42;97.95
70968;BME280;58629;48.808;8.820;2023-04-22T07:32:55;96511.91;;;11.56;98.43
70968;BME280;58629;48.808;8.820;2023-04-22T07:35:21;96516.19;;;11.66;98.66
70968;BME280;58629;48.808;8.820;2023-04-22T07:37:46;96513.50;;;11.78;96.97
70968;BME280;58629;48.808;8.820;2023-04-22T07:40:11;96511.75;;;11.97;94.38
70968;BME280;58629;48.808;8.820;2023-04-22T07:42:38;96518.72;;;12.16;92.17
70968;BME280;58629;48.808;8.820;2023-04-22T07:45:04;96522.69;;;12.20;89.36
70968;BME280;58629;48.808;8.820;2023-04-22T07:47:30;96527.16;;;12.24;86.94
70968;BME280;58629;48.808;8.820;2023-04-22T07:49:55;96519.81;;;12.28;85.08
70968;BME280;58629;48.808;8.820;2023-04-22T07:52:20;96522.53;;;12.37;81.25
70968;BME280;58629;48.808;8.820;2023-04-22T07:54:45;96524.66;;;12.42;84.84
70968;BME280;58629;48.808;8.820;2023-04-22T07:57:11;96519.22;;;12.45;84.58
70968;BME280;58629;48.808;8.820;2023-04-22T07:59:36;96521.28;;;12.50;82.36
70968;BME280;58629;48.808;8.820;2023-04-22T08:02:01;96517.91;;;12.71;82.01
70968;BME280;58629;48.808;8.820;2023-04-22T08:04:27;96514.03;;;12.94;82.74
70968;BME280;58629;48.808;8.820;2023-04-22T08:06:52;96504.75;;;13.29;82.22
70968;BME280;58629;48.808;8.820;2023-04-22T08:09:18;96512.09;;;13.65;81.24
70968;BME280;58629;48.808;8.820;2023-04-22T08:11:44;96510.38;;;13.98;79.76
70968;BME280;58629;48.808;8.820;2023-04-22T08:14:09;96511.44;;;14.28;78.93
70968;BME280;58629;48.808;8.820;2023-04-22T08:16:34;96507.72;;;14.34;73.10
70968;BME280;58629;48.808;8.820;2023-04-22T08:19:00;96503.72;;;14.39;74.16
70968;BME280;58629;48.808;8.820;2023-04-22T08:21:25;96499.72;;;14.61;74.29
70968;BME280;58629;48.808;8.820;2023-04-22T08:23:52;96507.81;;;14.76;74.23
70968;BME280;58629;48.808;8.820;2023-04-22T08:26:19;96501.38;;;15.01;71.10
70968;BME280;58629;48.808;8.820;2023-04-22T08:28:44;96502.38;;;15.12;67.54
70968;BME280;58629;48.808;8.820;2023-04-22T08:31:10;96496.63;;;15.37;68.40
70968;BME280;58629;48.808;8.820;2023-04-22T08:33:37;96494.28;;;15.63;67.18
70968;BME280;58629;48.808;8.820;2023-04-22T08:36:02;96494.75;;;15.85;63.80
70968;BME280;58629;48.808;8.820;2023-04-22T08:38:28;96492.63;;;16.13;64.69
70968;BME280;58629;48.808;8.820;2023-04-22T08:40:57;96486.94;;;16.34;64.46
70968;BME280;58629;48.808;8.820;2023-04-22T08:43:25;96487.72;;;16.64;64.08
70968;BME280;58629;48.808;8.820;2023-04-22T08:45:51;96485.78;;;16.94;64.60
70968;BME280;58629;48.808;8.820;2023-04-22T08:48:17;96486.03;;;17.25;64.13
70968;BME280;58629;48.808;8.820;2023-04-22T08:50:46;96483.50;;;17.51;62.92
70968;BME280;58629;48.808;8.820;2023-04-22T08:53:13;96479.94;;;17.79;61.02
70968;BME280;58629;48.808;8.820;2023-04-22T08:55:39;96484.19;;;17.86;60.61
70968;BME280;58629;48.808;8.820;2023-04-22T08:58:07;96481.88;;;17.79;60.25
70968;BME280;58629;48.808;8.820;2023-04-22T09:00:34;96481.81;;;17.93;58.78
70968;BME280;58629;48.808;8.820;2023-04-22T09:03:00;96476.78;;;18.01;57.07
70968;BME280;58629;48.808;8.820;2023-04-22T09:05:28;96476.84;;;18.06;53.72
70968;BME280;58629;48.808;8.820;2023-04-22T09:07:58;96472.66;;;18.00;52.77
70968;BME280;58629;48.808;8.820;2023-04-22T09:10:24;96469.44;;;17.96;51.21
70968;BME280;58629;48.808;8.820;2023-04-22T09:12:50;96468.91;;;17.92;52.62
70968;BME280;58629;48.808;8.820;2023-04-22T09:15:15;96460.41;;;17.93;53.52
70968;BME280;58629;48.808;8.820;2023-04-22T09:17:41;96457.94;;;17.90;53.93
70968;BME280;58629;48.808;8.820;2023-04-22T09:20:08;96459.00;;;17.98;52.73
70968;BME280;58629;48.808;8.820;2023-04-22T09:22:45;96461.56;;;18.12;52.92
70968;BME280;58629;48.808;8.820;2023-04-22T09:25:17;96456.31;;;18.44;53.70
70968;BME280;58629;48.808;8.820;2023-04-22T09:27:53;96458.66;;;18.87;53.14
70968;BME280;58629;48.808;8.820;2023-04-22T09:30:30;96448.03;;;19.04;50.91
70968;BME280;58629;48.808;8.820;2023-04-22T09:33:06;96448.56;;;19.14;51.92
70968;BME280;58629;48.808;8.820;2023-04-22T09:35:35;96442.94;;;19.12;50.82
70968;BME280;58629;48.808;8.820;2023-04-22T09:38:05;96446.56;;;19.03;50.81
70968;BME280;58629;48.808;8.820;2023-04-22T09:40:32;96445.38;;;19.10;50.37
70968;BME280;58629;48.808;8.820;2023-04-22T09:43:04;96444.13;;;19.42;49.06
70968;BME280;58629;48.808;8.820;2023-04-22T09:45:40;96446.19;;;19.69;48.75
70968;BME280;58629;48.808;8.820;2023-04-22T09:48:13;96433.09;;;19.93;48.08
70968;BME280;58629;48.808;8.820;2023-04-22T09:50:43;96435.09;;;20.04;47.18
70968;BME280;58629;48.808;8.820;2023-04-22T09:53:11;96431.75;;;20.20;46.80
70968;BME280;58629;48.808;8.820;2023-04-22T09:55:41;96432.00;;;20.27;46.88
70968;BME280;58629;48.808;8.820;2023-04-22T09:58:18;96428.34;;;20.36;45.15
70968;BME280;58629;48.808;8.820;2023-04-22T10:00:52;96432.75;;;20.39;46.56
70968;BME280;58629;48.808;8.820;2023-04-22T10:03:18;96426.91;;;20.51;45.99
70968;BME280;58629;48.808;8.820;2023-04-22T10:05:45;96430.31;;;20.74;47.90
70968;BME280;58629;48.808;8.820;2023-04-22T10:08:11;96435.47;;;20.89;45.57
70968;BME280;58629;48.808;8.820;2023-04-22T10:10:37;96427.16;;;21.09;46.53
70968;BME280;58629;48.808;8.820;2023-04-22T10:13:04;96436.44;;;21.02;45.00
70968;BME280;58629;48.808;8.820;2023-04-22T10:15:38;96426.41;;;20.92;45.48
70968;BME280;58629;48.808;8.820;2023-04-22T10:18:06;96427.38;;;20.66;46.57
70968;BME280;58629;48.808;8.820;2023-04-22T10:20:35;96426.16;;;20.90;45.58
70968;BME280;58629;48.808;8.820;2023-04-22T10:23:04;96430.09;;;21.05;46.20
70968;BME280;58629;48.808;8.820;2023-04-22T10:25:30;96423.94;;;21.27;44.13
70968;BME280;58629;48.808;8.820;2023-04-22T10:28:04;96420.16;;;21.57;44.63
70968;BME280;58629;48.808;8.820;2023-04-22T10:30:32;96418.88;;;21.81;45.05
70968;BME280;58629;48.808;8.820;2023-04-22T10:36:07;96416.50;;;22.12;43.73
70968;BME280;58629;48.808;8.820;2023-04-22T10:38:34;96420.34;;;22.22;41.54
70968;BME280;58629;48.808;8.820;2023-04-22T10:41:00;96415.41;;;22.26;42.96
70968;BME280;58629;48.808;8.820;2023-04-22T10:43:55;96409.78;;;22.24;42.23
70968;BME280;58629;48.808;8.820;2023-04-22T10:49:13;96420.03;;;21.96;42.23
70968;BME280;58629;48.808;8.820;2023-04-22T10:59:28;96411.34;;;22.50;41.56
70968;BME280;58629;48.808;8.820;2023-04-22T11:01:53;96411.34;;;22.50;42.83
70968;BME280;58629;48.808;8.820;2023-04-22T11:04:20;96409.81;;;22.54;39.63
70968;BME280;58629;48.808;8.820;2023-04-22T11:09:46;96408.28;;;22.70;37.77
70968;BME280;58629;48.808;8.820;2023-04-22T11:17:32;96410.63;;;23.57;39.35
70968;BME280;58629;48.808;8.820;2023-04-22T11:19:58;96414.31;;;23.29;38.50
70968;BME280;58629;48.808;8.820;2023-04-22T11:22:23;96419.66;;;22.87;37.32
70968;BME280;58629;48.808;8.820;2023-04-22T11:24:57;96420.44;;;22.47;40.56
70968;BME280;58629;48.808;8.820;2023-04-22T11:27:23;96416.19;;;22.21;40.13
70968;BME280;58629;48.808;8.820;2023-04-22T11:30:13;96424.47;;;21.77;36.84
70968;BME280;58629;48.808;8.820;2023-04-22T11:32:42;96420.91;;;21.58;37.82
70968;BME280;58629;48.808;8.820;2023-04-22T11:35:09;96411.59;;;21.53;39.06
70968;BME280;58629;48.808;8.820;2023-04-22T11:37:44;96423.84;;;21.54;40.23
70968;BME280;58629;48.808;8.820;2023-04-22T11:40:12;96420.81;;;21.86;40.52
70968;BME280;58629;48.808;8.820;2023-04-22T11:42:38;96425.53;;;22.15;42.80
70968;BME280;58629;48.808;8.820;2023-04-22T11:45:05;96410.44;;;22.41;38.26
70968;BME280;58629;48.808;8.820;2023-04-22T11:47:31;96418.19;;;22.86;39.52
70968;BME280;58629;48.808;8.820;2023-04-22T11:49:58;96408.69;;;23.27;37.74
70968;BME280;58629;48.808;8.820;2023-04-22T11:55:09;96418.25;;;23.77;35.99
70968;BME280;58629;48.808;8.820;2023-04-22T11:57:35;96425.06;;;23.41;34.86
70968;BME280;58629;48.808;8.820;2023-04-22T12:00:00;96420.31;;;23.47;36.31
70968;BME280;58629;48.808;8.820;2023-04-22T12:02:25;96426.38;;;23.77;34.95
70968;BME280;58629;48.808;8.820;2023-04-22T12:04:51;96412.91;;;23.71;35.54
70968;BME280;58629;48.808;8.820;2023-04-22T12:07:16;96433.72;;;23.04;32.15
70968;BME280;58629;48.808;8.820;2023-04-22T12:09:41;96426.03;;;22.89;31.92
70968;BME280;58629;48.808;8.820;2023-04-22T12:12:07;96434.06;;;22.30;34.98
70968;BME280;58629;48.808;8.820;2023-04-22T12:14:33;96427.41;;;22.31;35.58
70968;BME280;58629;48.808;8.820;2023-04-22T12:17:02;96426.00;;;22.54;36.17
70968;BME280;58629;48.808;8.820;2023-04-22T12:19:28;96431.63;;;22.56;36.75
70968;BME280;58629;48.808;8.820;2023-04-22T12:21:55;96428.94;;;22.62;35.67
70968;BME280;58629;48.808;8.820;2023-04-22T12:24:26;96424.44;;;22.40;36.98
70968;BME280;58629;48.808;8.820;2023-04-22T12:26:52;96426.63;;;21.95;39.58
70968;BME280;58629;48.808;8.820;2023-04-22T12:29:25;96427.34;;;21.33;38.77
70968;BME280;58629;48.808;8.820;2023-04-22T12:31:51;96426.66;;;20.83;42.73
70968;BME280;58629;48.808;8.820;2023-04-22T12:34:16;96430.75;;;20.28;44.28
70968;BME280;58629;48.808;8.820;2023-04-22T12:36:41;96438.03;;;20.00;49.09
70968;BME280;58629;48.808;8.820;2023-04-22T12:39:07;96433.81;;;19.82;48.60
70968;BME280;58629;48.808;8.820;2023-04-22T12:41:32;96428.44;;;19.82;46.65
70968;BME280;58629;48.808;8.820;2023-04-22T12:43:57;96442.88;;;19.91;47.28
70968;BME280;58629;48.808;8.820;2023-04-22T12:46:22;96441.63;;;19.80;47.90
70968;BME280;58629;48.808;8.820;2023-04-22T12:48:48;96439.13;;;19.71;49.25
70968;BME280;58629;48.808;8.820;2023-04-22T12:51:13;96446.66;;;19.62;45.90
70968;BME280;58629;48.808;8.820;2023-04-22T12:53:38;96440.13;;;19.74;48.87
70968;BME280;58629;48.808;8.820;2023-04-22T12:56:04;96440.88;;;19.74;47.68
70968;BME280;58629;48.808;8.820;2023-04-22T12:58:29;96439.66;;;19.81;48.14
70968;BME280;58629;48.808;8.820;2023-04-22T13:00:54;96443.16;;;20.04;46.07
70968;BME280;58629;48.808;8.820;2023-04-22T13:03:20;96437.28;;;19.94;44.06
70968;BME280;58629;48.808;8.820;2023-04-22T13:05:45;96438.53;;;20.04;43.74
70968;BME280;58629;48.808;8.820;2023-04-22T13:08:10;96440.50;;;20.15;44.46
70968;BME280;58629;48.808;8.820;2023-04-22T13:10:36;96445.16;;;20.14;43.17
70968;BME280;58629;48.808;8.820;2023-04-22T13:13:01;96436.13;;;20.23;43.39
70968;BME280;58629;48.808;8.820;2023-04-22T13:15:30;96445.94;;;20.37;45.39
70968;BME280;58629;48.808;8.820;2023-04-22T13:17:55;96444.69;;;20.27;46.82
70968;BME280;58629;48.808;8.820;2023-04-22T13:20:21;96442.75;;;20.38;48.07